createdAt,value
2018-12-04T00:00:04.369Z,99.90
2018-12-04T00:02:36.903Z,99.90
2018-12-04T00:05:09.329Z,99.90
2018-12-04T00:07:41.809Z,99.90
2018-12-04T00:10:14.320Z,99.90
2018-12-04T00:12:46.965Z,99.90
2018-12-04T00:15:19.710Z,99.90
2018-12-04T00:17:52.290Z,99.90
2018-12-04T00:20:24.775Z,99.90
2018-12-04T00:22:57.455Z,99.90
2018-12-04T00:25:29.843Z,99.90
2018-12-04T00:28:02.731Z,99.90
2018-12-04T00:30:35.185Z,99.90
2018-12-04T00:33:07.701Z,99.90
2018-12-04T00:35:41.380Z,99.90
2018-12-04T00:38:13.729Z,99.90
2018-12-04T00:40:46.228Z,99.90
2018-12-04T00:43:18.587Z,99.90
2018-12-04T00:45:51.038Z,99.90
2018-12-04T00:48:23.418Z,99.90
2018-12-04T00:50:55.904Z,99.90
2018-12-04T00:53:28.269Z,99.90
2018-12-04T00:56:00.730Z,99.90
2018-12-04T00:58:33.344Z,99.90
2018-12-04T01:01:05.779Z,99.90
2018-12-04T01:03:38.327Z,99.90
2018-12-04T01:06:10.862Z,99.90
2018-12-04T01:08:43.255Z,99.90
2018-12-04T01:11:15.698Z,99.90
2018-12-04T01:13:48.343Z,99.90
2018-12-04T01:16:21.505Z,99.90
2018-12-04T01:18:53.957Z,99.90
2018-12-04T01:21:26.593Z,99.90
2018-12-04T01:23:59.220Z,99.90
2018-12-04T01:26:31.884Z,99.90
2018-12-04T01:29:04.443Z,99.90
2018-12-04T01:31:36.949Z,99.90
2018-12-04T01:34:09.368Z,99.90
2018-12-04T01:36:41.838Z,99.90
2018-12-04T01:39:14.539Z,99.90
2018-12-04T01:41:46.942Z,99.90
2018-12-04T01:44:19.298Z,99.90
2018-12-04T01:46:51.997Z,99.90
2018-12-04T01:49:24.668Z,99.90
2018-12-04T01:51:57.349Z,99.90
2018-12-04T01:54:29.953Z,99.90
2018-12-04T01:57:02.429Z,99.90
2018-12-04T01:59:35.148Z,99.90
2018-12-04T02:02:07.769Z,99.90
2018-12-04T02:04:47.200Z,99.90
2018-12-04T02:07:19.800Z,99.90
2018-12-04T02:09:52.239Z,99.90
2018-12-04T02:12:24.628Z,99.90
2018-12-04T02:14:57.331Z,99.90
2018-12-04T02:17:30.442Z,99.90
2018-12-04T02:20:03.559Z,99.90
2018-12-04T02:22:36.026Z,99.90
2018-12-04T02:25:08.408Z,99.90
2018-12-04T02:27:40.867Z,99.90
2018-12-04T02:30:13.397Z,99.90
2018-12-04T02:32:45.984Z,99.90
2018-12-04T02:35:18.434Z,99.90
2018-12-04T02:37:50.782Z,99.90
2018-12-04T02:40:23.183Z,99.90
2018-12-04T02:42:56.178Z,99.90
2018-12-04T02:45:28.621Z,99.90
2018-12-04T02:48:01.380Z,99.90
2018-12-04T02:50:34.087Z,99.90
2018-12-04T02:53:06.774Z,99.90
2018-12-04T02:55:39.331Z,99.90
2018-12-04T02:58:12.005Z,99.90
2018-12-04T03:00:44.536Z,99.90
2018-12-04T03:03:16.943Z,99.90
2018-12-04T03:05:49.419Z,99.90
2018-12-04T03:08:22.046Z,99.90
2018-12-04T03:10:54.508Z,99.90
2018-12-04T03:13:27.085Z,99.90
2018-12-04T03:15:59.687Z,99.90
2018-12-04T03:18:32.164Z,99.90
2018-12-04T03:21:04.683Z,99.90
2018-12-04T03:23:37.340Z,99.90
2018-12-04T03:26:09.986Z,99.90
2018-12-04T03:28:42.610Z,99.90
2018-12-04T03:31:14.987Z,99.90
2018-12-04T03:33:47.781Z,99.90
2018-12-04T03:36:20.311Z,99.90
2018-12-04T03:38:52.909Z,99.90
2018-12-04T03:41:25.425Z,99.90
2018-12-04T03:43:57.969Z,99.90
2018-12-04T03:46:30.450Z,99.90
2018-12-04T03:49:03.843Z,99.90
2018-12-04T03:51:36.408Z,99.90
2018-12-04T03:54:09.147Z,99.90
2018-12-04T03:56:41.816Z,99.90
2018-12-04T03:59:14.391Z,99.90
2018-12-04T04:01:47.005Z,99.90
2018-12-04T04:04:19.453Z,99.90
2018-12-04T04:06:52.020Z,99.90
2018-12-04T04:09:24.456Z,99.90
2018-12-04T04:11:56.932Z,99.90
2018-12-04T04:14:29.410Z,99.90
2018-12-04T04:17:02.162Z,99.90
2018-12-04T04:19:35.040Z,99.90
2018-12-04T04:22:07.577Z,99.90
2018-12-04T04:24:40.378Z,99.90
2018-12-04T04:27:13.082Z,99.90
2018-12-04T04:29:45.491Z,99.90
2018-12-04T04:32:18.015Z,99.90
2018-12-04T04:34:50.916Z,99.90
2018-12-04T04:37:23.324Z,99.90
2018-12-04T04:39:55.710Z,99.90
2018-12-04T04:42:28.403Z,99.90
2018-12-04T04:45:00.931Z,99.90
2018-12-04T04:47:33.428Z,99.90
2018-12-04T04:50:06.128Z,99.90
2018-12-04T04:52:38.683Z,99.90
2018-12-04T04:55:11.069Z,99.90
2018-12-04T04:57:43.735Z,99.90
2018-12-04T05:00:16.140Z,99.90
2018-12-04T05:02:48.823Z,99.90
2018-12-04T05:05:30.434Z,99.90
2018-12-04T05:08:03.340Z,99.90
2018-12-04T05:10:35.760Z,99.90
2018-12-04T05:13:08.326Z,99.90
2018-12-04T05:15:40.965Z,99.90
2018-12-04T05:18:13.360Z,99.90
2018-12-04T05:20:45.865Z,99.90
2018-12-04T05:23:18.419Z,99.90
2018-12-04T05:25:50.993Z,99.90
2018-12-04T05:28:23.430Z,99.90
2018-12-04T05:30:55.920Z,99.90
2018-12-04T05:33:28.566Z,99.90
2018-12-04T05:36:01.276Z,99.90
2018-12-04T05:38:33.715Z,99.90
2018-12-04T05:41:06.101Z,99.90
2018-12-04T05:43:38.935Z,99.90
2018-12-04T05:46:11.408Z,99.90
2018-12-04T05:48:44.202Z,99.90
2018-12-04T05:51:16.776Z,99.90
2018-12-04T05:53:49.474Z,99.90
2018-12-04T05:56:22.150Z,99.90
2018-12-04T05:58:54.884Z,99.90
2018-12-04T06:01:27.527Z,99.90
2018-12-04T06:04:00.310Z,99.90
2018-12-04T06:06:32.855Z,99.90
2018-12-04T06:09:05.780Z,99.90
2018-12-04T06:11:38.403Z,99.90
2018-12-04T06:14:11.030Z,99.90
2018-12-04T06:16:43.634Z,99.90
2018-12-04T06:19:16.079Z,99.90
2018-12-04T06:21:48.779Z,99.90
2018-12-04T06:24:21.613Z,99.90
2018-12-04T06:26:54.257Z,99.90
2018-12-04T06:29:26.930Z,99.90
2018-12-04T06:31:59.439Z,99.90
2018-12-04T06:34:31.751Z,99.90
2018-12-04T06:37:04.244Z,99.90
2018-12-04T06:39:36.672Z,99.90
2018-12-04T06:42:09.071Z,99.90
2018-12-04T06:44:46.618Z,99.90
2018-12-04T06:47:16.283Z,99.90
2018-12-04T06:49:49.068Z,99.90
2018-12-04T06:52:21.602Z,99.90
2018-12-04T06:54:53.983Z,99.90
2018-12-04T06:57:26.548Z,99.90
2018-12-04T06:59:59.107Z,99.90
2018-12-04T07:02:31.543Z,99.90
2018-12-04T07:05:04.370Z,99.90
2018-12-04T07:07:36.940Z,99.90
2018-12-04T07:10:09.305Z,99.90
2018-12-04T07:12:41.734Z,99.90
2018-12-04T07:15:14.345Z,99.90
2018-12-04T07:17:46.847Z,99.90
2018-12-04T07:20:19.349Z,99.90
2018-12-04T07:22:51.979Z,99.90
2018-12-04T07:25:24.412Z,99.90
2018-12-04T07:27:56.963Z,99.90
2018-12-04T07:30:29.502Z,99.90
2018-12-04T07:33:01.984Z,99.90
2018-12-04T07:35:34.432Z,99.90
2018-12-04T07:38:06.891Z,99.90
2018-12-04T07:40:39.407Z,99.90
2018-12-04T07:43:11.876Z,99.90
2018-12-04T07:45:44.307Z,99.90
2018-12-04T07:48:16.753Z,99.90
2018-12-04T07:50:49.218Z,99.90
2018-12-04T07:53:21.848Z,99.90
2018-12-04T07:55:54.319Z,99.90
2018-12-04T07:58:27.064Z,99.90
2018-12-04T08:00:59.708Z,99.90
2018-12-04T08:03:32.372Z,99.90
2018-12-04T08:06:06.949Z,99.90
2018-12-04T08:08:39.332Z,99.90
2018-12-04T08:11:12.027Z,99.90
2018-12-04T08:13:44.697Z,99.90
2018-12-04T08:16:24.577Z,99.90
2018-12-04T08:18:57.128Z,99.90
2018-12-04T08:21:30.748Z,99.90
2018-12-04T08:24:03.957Z,99.90
2018-12-04T08:26:36.393Z,99.90
2018-12-04T08:29:09.274Z,99.90
2018-12-04T08:31:41.752Z,99.90
2018-12-04T08:34:14.289Z,99.90
2018-12-04T08:36:46.836Z,99.90
2018-12-04T08:39:19.503Z,99.90
2018-12-04T08:41:51.981Z,99.90
2018-12-04T08:44:24.643Z,99.90
2018-12-04T08:46:57.239Z,99.90
2018-12-04T08:49:29.785Z,99.90
2018-12-04T08:52:02.348Z,99.90
2018-12-04T08:54:34.956Z,99.90
2018-12-04T08:57:07.443Z,99.90
2018-12-04T08:59:40.110Z,99.90
2018-12-04T09:02:12.968Z,99.90
2018-12-04T09:04:45.593Z,99.90
2018-12-04T09:07:18.186Z,99.90
2018-12-04T09:09:50.606Z,99.90
2018-12-04T09:12:23.189Z,99.90
2018-12-04T09:14:55.851Z,99.90
2018-12-04T09:17:28.214Z,99.90
2018-12-04T09:20:01.019Z,99.90
2018-12-04T09:22:33.819Z,99.90
2018-12-04T09:25:06.473Z,99.90
2018-12-04T09:27:39.107Z,99.90
2018-12-04T09:30:11.763Z,99.90
2018-12-04T09:32:44.499Z,99.90
2018-12-04T09:35:17.438Z,99.90
2018-12-04T09:37:50.086Z,99.90
2018-12-04T09:40:22.806Z,99.90
2018-12-04T09:42:55.451Z,99.90
2018-12-04T09:45:27.991Z,99.90
2018-12-04T09:48:00.583Z,99.90
2018-12-04T09:50:33.182Z,99.90
2018-12-04T09:53:05.803Z,99.90
2018-12-04T09:55:38.636Z,99.90
2018-12-04T09:58:11.257Z,99.90
2018-12-04T10:00:43.849Z,99.90
2018-12-04T10:03:16.460Z,99.90
2018-12-04T10:05:49.143Z,99.90
2018-12-04T10:08:21.777Z,99.90
2018-12-04T10:10:55.146Z,99.90
2018-12-04T10:13:27.690Z,99.90
2018-12-04T10:16:00.292Z,99.90
2018-12-04T10:18:32.930Z,99.90
2018-12-04T10:26:46.174Z,99.90
2018-12-04T10:29:18.790Z,99.90
2018-12-04T10:31:55.919Z,99.90
2018-12-04T10:34:25.762Z,99.90
2018-12-04T10:42:34.336Z,99.90
2018-12-04T10:45:07.186Z,99.90
2018-12-04T10:47:39.801Z,99.90
2018-12-04T10:50:12.506Z,99.90
2018-12-04T10:52:45.179Z,99.90
2018-12-04T10:55:17.724Z,99.90
2018-12-04T10:57:50.349Z,99.90
2018-12-04T11:00:28.875Z,99.90
2018-12-04T11:03:07.874Z,99.90
2018-12-04T11:05:40.504Z,99.90
2018-12-04T11:08:13.247Z,99.90
2018-12-04T11:10:45.820Z,99.90
2018-12-04T11:13:18.365Z,99.90
2018-12-04T11:15:50.889Z,99.90
2018-12-04T11:18:23.554Z,99.90
2018-12-04T11:20:55.950Z,99.90
2018-12-04T11:23:28.339Z,99.90
2018-12-04T11:26:00.717Z,99.90
2018-12-04T11:28:33.122Z,99.90
2018-12-04T11:31:05.482Z,99.90
2018-12-04T11:33:37.982Z,99.90
2018-12-04T11:36:10.847Z,99.90
2018-12-04T11:38:43.426Z,99.90
2018-12-04T11:41:16.050Z,99.90
2018-12-04T11:43:48.590Z,99.90
2018-12-04T11:46:21.181Z,99.90
2018-12-04T11:48:53.797Z,99.90
2018-12-04T11:51:26.555Z,99.90
2018-12-04T11:53:59.026Z,99.90
2018-12-04T11:56:31.723Z,99.90
2018-12-04T11:59:04.271Z,99.90
2018-12-04T12:01:36.990Z,99.90
2018-12-04T12:04:09.541Z,99.50
2018-12-04T12:06:42.072Z,99.00
2018-12-04T12:09:14.582Z,99.50
2018-12-04T12:11:46.975Z,98.90
2018-12-04T12:14:19.410Z,99.00
2018-12-04T12:16:51.858Z,98.10
2018-12-04T12:19:24.355Z,97.70
2018-12-04T12:21:57.153Z,97.60
2018-12-04T12:24:29.537Z,98.10
2018-12-04T12:27:01.976Z,97.20
2018-12-04T12:29:34.432Z,97.20
2018-12-04T12:32:07.010Z,98.10
2018-12-04T12:34:39.437Z,97.60
2018-12-04T12:37:11.890Z,97.50
2018-12-04T12:39:44.553Z,97.60
2018-12-04T12:42:17.137Z,98.70
2018-12-04T12:44:49.594Z,99.40
2018-12-04T12:47:22.097Z,99.30
2018-12-04T12:49:54.870Z,98.40
2018-12-04T12:52:27.421Z,98.50
2018-12-04T12:55:00.015Z,98.50
2018-12-04T12:57:32.603Z,97.60
2018-12-04T13:00:06.546Z,97.90
2018-12-04T13:02:40.145Z,97.60
2018-12-04T13:05:12.762Z,97.10
2018-12-04T13:07:45.491Z,97.70
2018-12-04T13:10:17.997Z,97.70
2018-12-04T13:12:50.751Z,98.40
2018-12-04T13:15:23.341Z,97.60
2018-12-04T13:17:55.732Z,97.40
2018-12-04T13:20:28.300Z,97.40
2018-12-04T13:23:00.936Z,97.60
2018-12-04T13:25:33.531Z,98.00
2018-12-04T13:28:06.065Z,98.10
2018-12-04T13:30:38.947Z,98.10
2018-12-04T13:33:11.550Z,98.60
2018-12-04T13:35:44.020Z,99.40
2018-12-04T13:38:16.591Z,98.30
2018-12-04T13:40:49.218Z,98.50
2018-12-04T13:43:21.856Z,99.20
2018-12-04T13:45:54.317Z,98.90
2018-12-04T13:48:26.845Z,98.50
2018-12-04T13:50:59.462Z,98.00
2018-12-04T13:53:31.963Z,98.20
2018-12-04T13:56:04.379Z,97.80
2018-12-04T13:58:37.029Z,98.40
2018-12-04T14:01:09.639Z,97.80
2018-12-04T14:03:42.612Z,98.50
2018-12-04T14:06:15.221Z,98.10
2018-12-04T14:08:47.932Z,97.80
2018-12-04T14:11:20.520Z,98.00
2018-12-04T14:13:53.108Z,97.70
2018-12-04T14:16:25.641Z,97.70
2018-12-04T14:18:58.476Z,97.90
2018-12-04T14:21:31.117Z,97.80
2018-12-04T14:24:03.711Z,98.50
2018-12-04T14:26:36.322Z,99.20
2018-12-04T14:29:09.010Z,99.30
2018-12-04T14:31:41.562Z,99.70
2018-12-04T14:34:14.290Z,99.50
2018-12-04T14:36:46.878Z,99.20
2018-12-04T14:39:19.647Z,99.20
2018-12-04T14:41:52.284Z,99.20
2018-12-04T14:44:25.494Z,98.80
2018-12-04T14:46:58.220Z,99.00
2018-12-04T14:49:30.775Z,99.50
2018-12-04T14:52:03.392Z,99.50
2018-12-04T14:54:38.746Z,99.90
2018-12-04T14:57:11.443Z,99.90
2018-12-04T14:59:44.121Z,99.90
2018-12-04T15:02:16.908Z,99.90
2018-12-04T15:04:49.734Z,99.90
2018-12-04T15:07:22.492Z,99.90
2018-12-04T15:09:55.297Z,99.90
2018-12-04T15:12:28.301Z,99.90
2018-12-04T15:15:01.952Z,99.90
2018-12-04T15:17:34.524Z,99.90
2018-12-04T15:20:07.536Z,99.90
2018-12-04T15:22:40.162Z,99.90
2018-12-04T15:25:12.860Z,99.90
2018-12-04T15:27:45.501Z,99.90
2018-12-04T15:30:17.954Z,99.90
2018-12-04T15:32:50.756Z,99.90
2018-12-04T15:35:23.338Z,99.90
2018-12-04T15:37:56.139Z,99.90
2018-12-04T15:40:28.821Z,99.90
2018-12-04T15:43:01.171Z,99.90
2018-12-04T15:45:33.588Z,99.90
2018-12-04T15:48:06.294Z,99.90
2018-12-04T15:50:38.939Z,99.90
2018-12-04T15:53:11.577Z,99.90
2018-12-04T15:55:44.052Z,99.90
2018-12-04T15:58:16.694Z,99.90
2018-12-04T16:00:49.407Z,99.90
2018-12-04T16:03:22.020Z,99.90
2018-12-04T16:05:54.538Z,99.90
2018-12-04T16:08:27.120Z,99.90
2018-12-04T16:10:59.613Z,99.90
2018-12-04T16:13:32.352Z,99.90
2018-12-04T16:16:04.980Z,99.90
2018-12-04T16:18:37.855Z,99.90
2018-12-04T16:21:10.311Z,99.90
2018-12-04T16:23:42.965Z,99.90
2018-12-04T16:26:17.071Z,99.90
2018-12-04T16:28:49.800Z,99.90
2018-12-04T16:31:22.295Z,99.90
2018-12-04T16:33:54.736Z,99.90
2018-12-04T16:36:27.142Z,99.90
2018-12-04T16:38:59.632Z,99.90
2018-12-04T16:41:32.337Z,99.90
2018-12-04T16:44:05.002Z,99.90
2018-12-04T16:46:37.499Z,99.90
2018-12-04T16:49:10.147Z,99.90
2018-12-04T16:51:42.810Z,99.90
2018-12-04T16:54:15.246Z,99.90
2018-12-04T16:56:47.920Z,99.90
2018-12-04T16:59:20.566Z,99.90
2018-12-04T17:01:52.972Z,99.90
2018-12-04T17:04:25.577Z,99.90
2018-12-04T17:06:58.217Z,99.90
2018-12-04T17:09:31.041Z,99.90
2018-12-04T17:12:03.569Z,99.90
2018-12-04T17:14:36.242Z,99.90
2018-12-04T17:17:09.047Z,99.90
2018-12-04T17:19:41.668Z,99.90
2018-12-04T17:22:14.706Z,99.90
2018-12-04T17:24:47.471Z,99.90
2018-12-04T17:27:20.338Z,99.90
2018-12-04T17:29:52.856Z,99.90
2018-12-04T17:32:25.940Z,99.90
2018-12-04T17:34:58.881Z,99.90
2018-12-04T17:37:31.474Z,99.90
2018-12-04T17:40:05.033Z,99.90
2018-12-04T17:42:37.426Z,99.90
2018-12-04T17:45:10.520Z,99.90
2018-12-04T17:47:43.278Z,99.90
2018-12-04T17:50:16.104Z,99.90
2018-12-04T17:52:48.746Z,99.90
2018-12-04T17:55:21.643Z,99.90
2018-12-04T17:57:54.615Z,99.90
2018-12-04T18:00:27.260Z,99.90
2018-12-04T18:02:59.847Z,99.90
2018-12-04T18:05:32.577Z,99.90
2018-12-04T18:08:05.387Z,99.90
2018-12-04T18:10:37.837Z,99.90
2018-12-04T18:13:10.681Z,99.90
2018-12-04T18:15:43.296Z,99.90
2018-12-04T18:18:15.962Z,99.90
2018-12-04T18:20:48.587Z,99.90
2018-12-04T18:23:21.222Z,99.90
2018-12-04T18:25:54.128Z,99.90
2018-12-04T18:28:26.783Z,99.90
2018-12-04T18:30:59.642Z,99.90
2018-12-04T18:33:32.314Z,99.90
2018-12-04T18:36:04.930Z,99.90
2018-12-04T18:38:37.728Z,99.90
2018-12-04T18:41:10.233Z,99.90
2018-12-04T18:43:42.996Z,99.90
2018-12-04T18:46:16.481Z,99.90
2018-12-04T18:48:49.295Z,99.90
2018-12-04T18:51:22.014Z,99.90
2018-12-04T18:53:54.746Z,99.90
2018-12-04T18:56:27.322Z,99.90
2018-12-04T18:59:00.082Z,99.90
2018-12-04T19:01:32.765Z,99.90
2018-12-04T19:04:05.491Z,99.90
2018-12-04T19:06:38.418Z,99.90
2018-12-04T19:09:10.972Z,99.90
2018-12-04T19:11:43.862Z,99.90
2018-12-04T19:14:16.518Z,99.90
2018-12-04T19:16:49.268Z,99.90
2018-12-04T19:19:22.002Z,99.90
2018-12-04T19:21:59.792Z,99.90
2018-12-04T19:24:32.372Z,99.90
2018-12-04T19:27:05.050Z,99.90
2018-12-04T19:29:37.631Z,99.90
2018-12-04T19:32:10.556Z,99.90
2018-12-04T19:34:43.077Z,99.90
2018-12-04T19:37:15.887Z,99.90
2018-12-04T19:39:48.585Z,99.90
2018-12-04T19:42:21.161Z,99.90
2018-12-04T19:44:53.855Z,99.90
2018-12-04T19:47:26.372Z,99.90
2018-12-04T19:49:59.285Z,99.90
2018-12-04T19:52:32.190Z,99.90
2018-12-04T19:55:05.241Z,99.90
2018-12-04T19:57:37.870Z,99.90
2018-12-04T20:00:10.702Z,99.90
2018-12-04T20:02:43.653Z,99.90
2018-12-04T20:05:16.369Z,99.90
2018-12-04T20:07:49.234Z,99.90
2018-12-04T20:10:21.848Z,99.90
2018-12-04T20:12:54.765Z,99.90
2018-12-04T20:15:27.455Z,99.90
2018-12-04T20:18:00.655Z,99.90
2018-12-04T20:20:33.309Z,99.90
2018-12-04T20:23:06.400Z,99.90
2018-12-04T20:25:39.310Z,99.90
2018-12-04T20:28:12.292Z,99.90
2018-12-04T20:30:44.824Z,99.90
2018-12-04T20:33:17.920Z,99.90
2018-12-04T20:35:50.558Z,99.90
2018-12-04T20:38:23.328Z,99.90
2018-12-04T20:40:55.763Z,99.90
2018-12-04T20:43:28.323Z,99.90
2018-12-04T20:46:05.949Z,99.90
2018-12-04T20:48:35.670Z,99.90
2018-12-04T20:51:08.747Z,99.90
2018-12-04T20:53:41.781Z,99.90
2018-12-04T20:56:14.503Z,99.90
2018-12-04T20:58:47.466Z,99.90
2018-12-04T21:01:20.189Z,99.90
2018-12-04T21:03:52.827Z,99.90
2018-12-04T21:06:25.828Z,99.90
2018-12-04T21:08:58.397Z,99.90
2018-12-04T21:11:31.286Z,99.90
2018-12-04T21:14:04.775Z,99.90
2018-12-04T21:16:37.468Z,99.90
2018-12-04T21:19:10.106Z,99.90
2018-12-04T21:21:42.695Z,99.90
2018-12-04T21:24:15.365Z,99.90
2018-12-04T21:26:48.014Z,99.90
2018-12-04T21:29:26.583Z,99.90
2018-12-04T21:32:05.049Z,99.90
2018-12-04T21:34:48.319Z,99.90
2018-12-04T21:37:24.420Z,99.90
2018-12-04T21:40:04.391Z,99.90
2018-12-04T21:42:43.464Z,99.90
2018-12-04T21:45:21.887Z,99.90
2018-12-04T21:47:56.381Z,99.90
2018-12-04T21:50:28.976Z,99.90
2018-12-04T21:53:01.628Z,99.90
2018-12-04T21:55:34.289Z,99.90
2018-12-04T21:58:07.027Z,99.90
2018-12-04T22:00:39.623Z,99.90
2018-12-04T22:03:11.987Z,99.90
2018-12-04T22:05:44.707Z,99.90
2018-12-04T22:08:17.452Z,99.90
2018-12-04T22:10:50.285Z,99.90
2018-12-04T22:13:22.934Z,99.90
2018-12-04T22:15:55.586Z,99.90
2018-12-04T22:18:28.361Z,99.90
2018-12-04T22:21:00.941Z,99.90
2018-12-04T22:23:33.512Z,99.90
2018-12-04T22:26:05.956Z,99.90
2018-12-04T22:28:38.363Z,99.90
2018-12-04T22:31:10.852Z,99.90
2018-12-04T22:33:43.496Z,99.90
2018-12-04T22:36:15.956Z,99.90
2018-12-04T22:38:48.599Z,99.90
2018-12-04T22:41:21.120Z,99.90
2018-12-04T22:43:53.798Z,99.90
2018-12-04T22:46:26.446Z,99.90
2018-12-04T22:48:59.089Z,99.90
2018-12-04T22:51:31.560Z,99.90
2018-12-04T22:54:04.352Z,99.90
2018-12-04T22:56:36.871Z,99.90
2018-12-04T22:59:16.300Z,99.90
2018-12-04T23:01:48.855Z,99.90
2018-12-04T23:04:21.447Z,99.90
2018-12-04T23:06:54.081Z,99.90
2018-12-04T23:09:31.867Z,99.90
2018-12-04T23:12:04.454Z,99.90
2018-12-04T23:14:37.323Z,99.90
2018-12-04T23:17:10.042Z,99.90
2018-12-04T23:19:42.720Z,99.90
2018-12-04T23:22:15.544Z,99.90
2018-12-04T23:24:48.364Z,99.90
2018-12-04T23:27:27.810Z,99.90
2018-12-04T23:30:00.366Z,99.90
2018-12-04T23:32:32.918Z,99.90
2018-12-04T23:35:05.698Z,99.90
2018-12-04T23:37:38.256Z,99.90
2018-12-04T23:40:11.081Z,99.90
2018-12-04T23:42:43.675Z,99.90
2018-12-04T23:45:16.067Z,99.90
2018-12-04T23:47:48.754Z,99.90
2018-12-04T23:50:21.254Z,99.90
2018-12-04T23:52:53.724Z,99.90
2018-12-04T23:55:26.344Z,99.90
2018-12-04T23:57:59.046Z,99.90
